sensor_id;sensor_type;location;lat;lon;timestamp;temperature;humidity
68701;DHT22;55682;51.114;5.882;2023-06-26T00:02:16;25.97;56.49
68701;DHT22;55682;51.114;5.882;2023-06-26T00:04:43;25.95;56.64
68701;DHT22;55682;51.114;5.882;2023-06-26T00:07:09;25.91;56.71
68701;DHT22;55682;51.114;5.882;2023-06-26T00:09:36;25.89;56.69
68701;DHT22;55682;51.114;5.882;2023-06-26T00:12:02;25.87;56.71
68701;DHT22;55682;51.114;5.882;2023-06-26T00:14:27;25.82;56.86
68701;DHT22;55682;51.114;5.882;2023-06-26T00:16:53;25.79;56.87
68701;DHT22;55682;51.114;5.882;2023-06-26T00:19:19;25.76;56.71
68701;DHT22;55682;51.114;5.882;2023-06-26T00:21:45;25.76;56.66
68701;DHT22;55682;51.114;5.882;2023-06-26T00:24:12;25.74;56.67
68701;DHT22;55682;51.114;5.882;2023-06-26T00:26:38;25.69;56.77
68701;DHT22;55682;51.114;5.882;2023-06-26T00:29:04;25.67;56.78
68701;DHT22;55682;51.114;5.882;2023-06-26T00:31:30;25.64;56.79
68701;DHT22;55682;51.114;5.882;2023-06-26T00:33:56;25.61;56.91
68701;DHT22;55682;51.114;5.882;2023-06-26T00:36:23;25.58;56.87
68701;DHT22;55682;51.114;5.882;2023-06-26T00:38:52;25.54;56.96
68701;DHT22;55682;51.114;5.882;2023-06-26T00:41:18;25.51;56.93
68701;DHT22;55682;51.114;5.882;2023-06-26T00:43:44;25.43;57.08
68701;DHT22;55682;51.114;5.882;2023-06-26T00:46:12;25.43;57.14
68701;DHT22;55682;51.114;5.882;2023-06-26T00:48:41;25.32;57.32
68701;DHT22;55682;51.114;5.882;2023-06-26T00:51:07;25.33;57.29
68701;DHT22;55682;51.114;5.882;2023-06-26T00:53:34;25.25;57.26
68701;DHT22;55682;51.114;5.882;2023-06-26T00:56:01;25.18;57.26
68701;DHT22;55682;51.114;5.882;2023-06-26T00:58:28;25.22;56.92
68701;DHT22;55682;51.114;5.882;2023-06-26T01:00:56;25.12;57.19
68701;DHT22;55682;51.114;5.882;2023-06-26T01:03:24;25.09;57.05
68701;DHT22;55682;51.114;5.882;2023-06-26T01:05:56;25.04;57.17
68701;DHT22;55682;51.114;5.882;2023-06-26T01:08:25;24.98;57.28
68701;DHT22;55682;51.114;5.882;2023-06-26T01:10:51;24.98;57.29
68701;DHT22;55682;51.114;5.882;2023-06-26T01:13:17;24.95;57.25
68701;DHT22;55682;51.114;5.882;2023-06-26T01:15:45;24.90;57.39
68701;DHT22;55682;51.114;5.882;2023-06-26T01:18:12;24.86;57.43
68701;DHT22;55682;51.114;5.882;2023-06-26T01:20:41;24.90;57.24
68701;DHT22;55682;51.114;5.882;2023-06-26T01:23:29;24.84;57.42
68701;DHT22;55682;51.114;5.882;2023-06-26T01:28:42;24.80;57.50
68701;DHT22;55682;51.114;5.882;2023-06-26T01:31:10;24.74;57.68
68701;DHT22;55682;51.114;5.882;2023-06-26T01:33:37;24.74;57.74
68701;DHT22;55682;51.114;5.882;2023-06-26T01:36:04;24.73;57.64
68701;DHT22;55682;51.114;5.882;2023-06-26T01:38:30;24.73;57.66
68701;DHT22;55682;51.114;5.882;2023-06-26T01:40:57;24.70;57.78
68701;DHT22;55682;51.114;5.882;2023-06-26T01:46:20;24.61;58.11
68701;DHT22;55682;51.114;5.882;2023-06-26T01:49:03;24.55;58.27
68701;DHT22;55682;51.114;5.882;2023-06-26T01:51:34;24.53;58.28
68701;DHT22;55682;51.114;5.882;2023-06-26T01:54:02;24.47;58.27
68701;DHT22;55682;51.114;5.882;2023-06-26T01:56:29;24.45;58.29
68701;DHT22;55682;51.114;5.882;2023-06-26T01:58:56;24.41;58.33
68701;DHT22;55682;51.114;5.882;2023-06-26T02:01:23;24.39;58.46
68701;DHT22;55682;51.114;5.882;2023-06-26T02:03:48;24.39;58.53
68701;DHT22;55682;51.114;5.882;2023-06-26T02:06:14;24.41;58.48
68701;DHT22;55682;51.114;5.882;2023-06-26T02:08:40;24.38;58.44
68701;DHT22;55682;51.114;5.882;2023-06-26T02:11:06;24.36;58.54
68701;DHT22;55682;51.114;5.882;2023-06-26T02:13:31;24.34;58.46
68701;DHT22;55682;51.114;5.882;2023-06-26T02:15:57;24.31;58.64
68701;DHT22;55682;51.114;5.882;2023-06-26T02:18:23;24.31;58.50
68701;DHT22;55682;51.114;5.882;2023-06-26T02:20:50;24.30;58.52
68701;DHT22;55682;51.114;5.882;2023-06-26T02:23:16;24.28;58.55
68701;DHT22;55682;51.114;5.882;2023-06-26T02:25:41;24.27;58.51
68701;DHT22;55682;51.114;5.882;2023-06-26T02:28:09;24.28;58.43
68701;DHT22;55682;51.114;5.882;2023-06-26T02:30:35;24.29;58.23
68701;DHT22;55682;51.114;5.882;2023-06-26T02:33:01;24.26;58.02
68701;DHT22;55682;51.114;5.882;2023-06-26T02:35:26;24.24;57.85
68701;DHT22;55682;51.114;5.882;2023-06-26T02:37:52;24.25;57.64
68701;DHT22;55682;51.114;5.882;2023-06-26T02:40:17;24.23;57.48
68701;DHT22;55682;51.114;5.882;2023-06-26T02:42:43;24.26;56.82
68701;DHT22;55682;51.114;5.882;2023-06-26T02:45:09;24.21;56.29
68701;DHT22;55682;51.114;5.882;2023-06-26T02:47:35;24.14;55.94
68701;DHT22;55682;51.114;5.882;2023-06-26T02:50:02;24.08;55.49
68701;DHT22;55682;51.114;5.882;2023-06-26T02:52:39;24.03;55.29
68701;DHT22;55682;51.114;5.882;2023-06-26T02:55:05;23.98;55.26
68701;DHT22;55682;51.114;5.882;2023-06-26T02:57:31;23.96;55.23
68701;DHT22;55682;51.114;5.882;2023-06-26T02:59:57;23.90;55.42
68701;DHT22;55682;51.114;5.882;2023-06-26T03:02:23;23.88;55.69
68701;DHT22;55682;51.114;5.882;2023-06-26T03:04:48;23.84;56.12
68701;DHT22;55682;51.114;5.882;2023-06-26T03:07:15;23.85;56.35
68701;DHT22;55682;51.114;5.882;2023-06-26T03:09:42;23.79;56.64
68701;DHT22;55682;51.114;5.882;2023-06-26T03:12:08;23.73;56.87
68701;DHT22;55682;51.114;5.882;2023-06-26T03:14:34;23.69;57.00
68701;DHT22;55682;51.114;5.882;2023-06-26T03:17:00;23.64;57.03
68701;DHT22;55682;51.114;5.882;2023-06-26T03:19:29;23.60;56.90
68701;DHT22;55682;51.114;5.882;2023-06-26T03:22:16;23.51;56.66
68701;DHT22;55682;51.114;5.882;2023-06-26T03:24:41;23.45;56.57
68701;DHT22;55682;51.114;5.882;2023-06-26T03:27:09;23.42;56.37
68701;DHT22;55682;51.114;5.882;2023-06-26T03:29:35;23.37;56.36
68701;DHT22;55682;51.114;5.882;2023-06-26T03:32:01;23.34;56.29
68701;DHT22;55682;51.114;5.882;2023-06-26T03:34:26;23.35;56.18
68701;DHT22;55682;51.114;5.882;2023-06-26T03:36:53;23.34;56.21
68701;DHT22;55682;51.114;5.882;2023-06-26T03:39:19;23.35;56.29
68701;DHT22;55682;51.114;5.882;2023-06-26T03:41:44;23.35;56.29
68701;DHT22;55682;51.114;5.882;2023-06-26T03:44:10;23.43;56.29
68701;DHT22;55682;51.114;5.882;2023-06-26T03:46:43;23.45;56.37
68701;DHT22;55682;51.114;5.882;2023-06-26T03:49:09;23.49;56.40
68701;DHT22;55682;51.114;5.882;2023-06-26T03:51:36;23.51;56.43
68701;DHT22;55682;51.114;5.882;2023-06-26T03:54:02;23.44;56.77
68701;DHT22;55682;51.114;5.882;2023-06-26T03:56:27;23.41;57.00
68701;DHT22;55682;51.114;5.882;2023-06-26T03:58:53;23.38;57.26
68701;DHT22;55682;51.114;5.882;2023-06-26T04:01:21;23.35;57.36
68701;DHT22;55682;51.114;5.882;2023-06-26T04:03:48;23.37;57.45
68701;DHT22;55682;51.114;5.882;2023-06-26T04:06:15;23.34;57.47
68701;DHT22;55682;51.114;5.882;2023-06-26T04:08:40;23.34;57.50
68701;DHT22;55682;51.114;5.882;2023-06-26T04:11:06;23.34;57.48
68701;DHT22;55682;51.114;5.882;2023-06-26T04:13:32;23.44;57.15
68701;DHT22;55682;51.114;5.882;2023-06-26T04:15:57;23.72;56.59
68701;DHT22;55682;51.114;5.882;2023-06-26T04:18:23;24.16;55.18
68701;DHT22;55682;51.114;5.882;2023-06-26T04:21:09;24.63;53.84
68701;DHT22;55682;51.114;5.882;2023-06-26T04:23:38;24.92;52.99
68701;DHT22;55682;51.114;5.882;2023-06-26T04:26:04;24.84;52.67
68701;DHT22;55682;51.114;5.882;2023-06-26T04:28:32;24.55;53.69
68701;DHT22;55682;51.114;5.882;2023-06-26T04:30:58;24.38;54.37
68701;DHT22;55682;51.114;5.882;2023-06-26T04:33:25;24.44;54.59
68701;DHT22;55682;51.114;5.882;2023-06-26T04:35:51;25.04;53.30
68701;DHT22;55682;51.114;5.882;2023-06-26T04:38:17;25.65;51.47
68701;DHT22;55682;51.114;5.882;2023-06-26T04:40:43;26.18;50.10
68701;DHT22;55682;51.114;5.882;2023-06-26T04:43:09;26.76;48.63
68701;DHT22;55682;51.114;5.882;2023-06-26T04:45:35;27.02;47.76
68701;DHT22;55682;51.114;5.882;2023-06-26T04:48:01;27.21;47.28
68701;DHT22;55682;51.114;5.882;2023-06-26T04:50:27;27.32;47.12
68701;DHT22;55682;51.114;5.882;2023-06-26T04:52:55;27.21;46.83
68701;DHT22;55682;51.114;5.882;2023-06-26T04:55:20;26.97;47.77
68701;DHT22;55682;51.114;5.882;2023-06-26T04:57:47;27.30;47.27
68701;DHT22;55682;51.114;5.882;2023-06-26T05:00:13;27.64;46.55
68701;DHT22;55682;51.114;5.882;2023-06-26T05:02:40;28.01;45.44
68701;DHT22;55682;51.114;5.882;2023-06-26T05:05:06;28.23;45.01
68701;DHT22;55682;51.114;5.882;2023-06-26T05:07:32;28.35;44.72
68701;DHT22;55682;51.114;5.882;2023-06-26T05:09:58;28.57;44.01
68701;DHT22;55682;51.114;5.882;2023-06-26T05:12:23;28.42;44.28
68701;DHT22;55682;51.114;5.882;2023-06-26T05:14:49;27.90;45.38
68701;DHT22;55682;51.114;5.882;2023-06-26T05:17:15;27.10;47.40
68701;DHT22;55682;51.114;5.882;2023-06-26T05:19:40;26.39;49.44
68701;DHT22;55682;51.114;5.882;2023-06-26T05:22:07;26.65;50.02
68701;DHT22;55682;51.114;5.882;2023-06-26T05:24:37;27.84;47.45
68701;DHT22;55682;51.114;5.882;2023-06-26T05:27:04;28.87;44.51
68701;DHT22;55682;51.114;5.882;2023-06-26T05:29:31;29.76;42.40
68701;DHT22;55682;51.114;5.882;2023-06-26T05:31:58;30.11;40.97
68701;DHT22;55682;51.114;5.882;2023-06-26T05:34:24;29.85;41.39
68701;DHT22;55682;51.114;5.882;2023-06-26T05:36:51;29.62;42.03
68701;DHT22;55682;51.114;5.882;2023-06-26T05:39:18;29.63;42.05
68701;DHT22;55682;51.114;5.882;2023-06-26T05:41:44;29.74;42.16
68701;DHT22;55682;51.114;5.882;2023-06-26T05:44:10;30.06;41.52
68701;DHT22;55682;51.114;5.882;2023-06-26T05:46:36;30.59;40.69
68701;DHT22;55682;51.114;5.882;2023-06-26T05:49:01;31.31;39.16
68701;DHT22;55682;51.114;5.882;2023-06-26T05:51:28;31.90;38.06
68701;DHT22;55682;51.114;5.882;2023-06-26T05:53:54;32.16;36.93
68701;DHT22;55682;51.114;5.882;2023-06-26T05:56:20;32.54;36.60
68701;DHT22;55682;51.114;5.882;2023-06-26T05:58:47;33.21;34.95
68701;DHT22;55682;51.114;5.882;2023-06-26T06:01:13;33.22;34.60
68701;DHT22;55682;51.114;5.882;2023-06-26T06:03:39;33.41;34.44
68701;DHT22;55682;51.114;5.882;2023-06-26T06:06:05;33.66;33.62
68701;DHT22;55682;51.114;5.882;2023-06-26T06:08:31;33.75;33.44
68701;DHT22;55682;51.114;5.882;2023-06-26T06:10:59;33.94;33.23
68701;DHT22;55682;51.114;5.882;2023-06-26T06:13:25;34.11;32.59
68701;DHT22;55682;51.114;5.882;2023-06-26T06:15:50;34.50;32.31
68701;DHT22;55682;51.114;5.882;2023-06-26T06:18:16;34.83;31.57
68701;DHT22;55682;51.114;5.882;2023-06-26T06:20:42;35.10;31.25
68701;DHT22;55682;51.114;5.882;2023-06-26T06:23:07;35.09;30.67
68701;DHT22;55682;51.114;5.882;2023-06-26T06:25:33;34.97;31.25
68701;DHT22;55682;51.114;5.882;2023-06-26T06:27:58;35.35;30.72
68701;DHT22;55682;51.114;5.882;2023-06-26T06:30:24;35.57;29.96
68701;DHT22;55682;51.114;5.882;2023-06-26T06:32:50;35.55;30.03
68701;DHT22;55682;51.114;5.882;2023-06-26T06:35:20;35.85;29.08
68701;DHT22;55682;51.114;5.882;2023-06-26T06:37:46;35.63;29.17
68701;DHT22;55682;51.114;5.882;2023-06-26T06:40:12;35.89;29.03
68701;DHT22;55682;51.114;5.882;2023-06-26T06:42:38;36.38;28.18
68701;DHT22;55682;51.114;5.882;2023-06-26T06:45:04;36.93;27.28
68701;DHT22;55682;51.114;5.882;2023-06-26T06:47:32;37.60;26.49
68701;DHT22;55682;51.114;5.882;2023-06-26T06:49:58;38.01;25.78
68701;DHT22;55682;51.114;5.882;2023-06-26T06:52:24;38.11;25.12
68701;DHT22;55682;51.114;5.882;2023-06-26T06:54:54;38.22;25.08
68701;DHT22;55682;51.114;5.882;2023-06-26T06:57:21;38.63;24.46
68701;DHT22;55682;51.114;5.882;2023-06-26T06:59:47;39.02;23.97
68701;DHT22;55682;51.114;5.882;2023-06-26T07:02:16;39.56;22.56
68701;DHT22;55682;51.114;5.882;2023-06-26T07:04:41;39.27;23.05
68701;DHT22;55682;51.114;5.882;2023-06-26T07:07:07;39.08;23.56
68701;DHT22;55682;51.114;5.882;2023-06-26T07:09:34;39.24;22.92
68701;DHT22;55682;51.114;5.882;2023-06-26T07:11:59;39.59;22.66
68701;DHT22;55682;51.114;5.882;2023-06-26T07:14:25;39.74;22.36
68701;DHT22;55682;51.114;5.882;2023-06-26T07:16:51;39.19;22.69
68701;DHT22;55682;51.114;5.882;2023-06-26T07:19:17;38.49;23.86
68701;DHT22;55682;51.114;5.882;2023-06-26T07:21:42;38.06;24.47
68701;DHT22;55682;51.114;5.882;2023-06-26T07:24:10;38.22;24.64
68701;DHT22;55682;51.114;5.882;2023-06-26T07:26:36;38.16;24.20
68701;DHT22;55682;51.114;5.882;2023-06-26T07:29:01;37.08;25.96
68701;DHT22;55682;51.114;5.882;2023-06-26T07:31:27;37.02;26.20
68701;DHT22;55682;51.114;5.882;2023-06-26T07:33:53;36.40;26.81
68701;DHT22;55682;51.114;5.882;2023-06-26T07:36:18;35.38;28.25
68701;DHT22;55682;51.114;5.882;2023-06-26T07:38:44;35.44;28.99
68701;DHT22;55682;51.114;5.882;2023-06-26T07:41:10;35.50;28.29
68701;DHT22;55682;51.114;5.882;2023-06-26T07:43:35;34.74;29.30
68701;DHT22;55682;51.114;5.882;2023-06-26T07:46:01;34.50;30.36
68701;DHT22;55682;51.114;5.882;2023-06-26T07:48:27;34.20;30.23
68701;DHT22;55682;51.114;5.882;2023-06-26T07:50:52;33.33;31.70
68701;DHT22;55682;51.114;5.882;2023-06-26T07:53:19;33.08;32.39
68701;DHT22;55682;51.114;5.882;2023-06-26T07:55:45;32.89;32.99
68701;DHT22;55682;51.114;5.882;2023-06-26T07:58:10;33.52;31.97
68701;DHT22;55682;51.114;5.882;2023-06-26T08:00:37;34.07;30.83
68701;DHT22;55682;51.114;5.882;2023-06-26T08:03:02;34.08;30.79
68701;DHT22;55682;51.114;5.882;2023-06-26T08:05:28;34.10;30.89
68701;DHT22;55682;51.114;5.882;2023-06-26T08:07:54;34.08;30.74
68701;DHT22;55682;51.114;5.882;2023-06-26T08:10:20;33.80;31.20
68701;DHT22;55682;51.114;5.882;2023-06-26T08:12:45;34.37;30.49
68701;DHT22;55682;51.114;5.882;2023-06-26T08:15:12;34.78;29.42
68701;DHT22;55682;51.114;5.882;2023-06-26T08:17:38;34.54;29.37
68701;DHT22;55682;51.114;5.882;2023-06-26T08:20:05;33.87;30.71
68701;DHT22;55682;51.114;5.882;2023-06-26T08:22:33;33.89;30.56
68701;DHT22;55682;51.114;5.882;2023-06-26T08:24:59;33.38;31.61
68701;DHT22;55682;51.114;5.882;2023-06-26T08:27:25;34.14;30.62
68701;DHT22;55682;51.114;5.882;2023-06-26T08:29:51;34.45;30.03
68701;DHT22;55682;51.114;5.882;2023-06-26T08:32:16;35.25;28.48
68701;DHT22;55682;51.114;5.882;2023-06-26T08:34:42;36.38;26.76
68701;DHT22;55682;51.114;5.882;2023-06-26T08:37:08;37.40;25.18
68701;DHT22;55682;51.114;5.882;2023-06-26T08:39:34;37.20;24.65
68701;DHT22;55682;51.114;5.882;2023-06-26T08:42:00;36.49;26.29
68701;DHT22;55682;51.114;5.882;2023-06-26T08:44:26;37.10;25.59
68701;DHT22;55682;51.114;5.882;2023-06-26T08:46:52;37.28;24.70
68701;DHT22;55682;51.114;5.882;2023-06-26T08:49:25;37.54;24.48
68701;DHT22;55682;51.114;5.882;2023-06-26T08:52:02;37.71;23.92
68701;DHT22;55682;51.114;5.882;2023-06-26T08:54:39;37.46;24.36
68701;DHT22;55682;51.114;5.882;2023-06-26T08:57:07;37.96;23.97
68701;DHT22;55682;51.114;5.882;2023-06-26T08:59:33;38.98;22.72
68701;DHT22;55682;51.114;5.882;2023-06-26T09:01:59;39.54;21.29
68701;DHT22;55682;51.114;5.882;2023-06-26T09:04:25;39.64;21.45
68701;DHT22;55682;51.114;5.882;2023-06-26T09:06:50;38.90;22.11
68701;DHT22;55682;51.114;5.882;2023-06-26T09:09:16;38.40;22.79
68701;DHT22;55682;51.114;5.882;2023-06-26T09:11:42;38.53;22.59
68701;DHT22;55682;51.114;5.882;2023-06-26T09:14:07;39.30;21.18
68701;DHT22;55682;51.114;5.882;2023-06-26T09:16:42;39.06;21.05
68701;DHT22;55682;51.114;5.882;2023-06-26T09:19:11;39.20;21.31
68701;DHT22;55682;51.114;5.882;2023-06-26T09:21:42;40.33;20.29
68701;DHT22;55682;51.114;5.882;2023-06-26T09:24:09;40.85;19.12
68701;DHT22;55682;51.114;5.882;2023-06-26T09:26:36;39.76;20.57
68701;DHT22;55682;51.114;5.882;2023-06-26T09:29:03;40.27;20.07
68701;DHT22;55682;51.114;5.882;2023-06-26T09:31:29;40.92;19.05
68701;DHT22;55682;51.114;5.882;2023-06-26T09:33:58;41.28;18.31
68701;DHT22;55682;51.114;5.882;2023-06-26T09:36:29;41.88;17.75
68701;DHT22;55682;51.114;5.882;2023-06-26T09:39:03;42.60;16.75
68701;DHT22;55682;51.114;5.882;2023-06-26T09:41:30;41.80;16.93
68701;DHT22;55682;51.114;5.882;2023-06-26T09:44:01;41.73;17.24
68701;DHT22;55682;51.114;5.882;2023-06-26T09:46:29;42.55;16.06
68701;DHT22;55682;51.114;5.882;2023-06-26T09:49:09;43.19;15.14
68701;DHT22;55682;51.114;5.882;2023-06-26T09:51:40;43.28;14.93
68701;DHT22;55682;51.114;5.882;2023-06-26T09:54:06;43.42;14.57
68701;DHT22;55682;51.114;5.882;2023-06-26T09:56:33;43.11;14.64
68701;DHT22;55682;51.114;5.882;2023-06-26T09:59:04;41.57;16.16
68701;DHT22;55682;51.114;5.882;2023-06-26T10:01:31;40.87;17.18
68701;DHT22;55682;51.114;5.882;2023-06-26T10:03:57;39.84;18.48
68701;DHT22;55682;51.114;5.882;2023-06-26T10:06:46;38.51;20.29
68701;DHT22;55682;51.114;5.882;2023-06-26T10:09:17;38.12;20.87
68701;DHT22;55682;51.114;5.882;2023-06-26T10:11:55;38.89;19.57
68701;DHT22;55682;51.114;5.882;2023-06-26T10:14:26;39.94;18.11
68701;DHT22;55682;51.114;5.882;2023-06-26T10:16:57;40.76;16.90
68701;DHT22;55682;51.114;5.882;2023-06-26T10:19:27;41.13;16.63
68701;DHT22;55682;51.114;5.882;2023-06-26T10:21:54;41.67;15.84
68701;DHT22;55682;51.114;5.882;2023-06-26T10:24:22;42.41;14.52
68701;DHT22;55682;51.114;5.882;2023-06-26T10:26:52;42.70;14.09
68701;DHT22;55682;51.114;5.882;2023-06-26T10:29:23;42.84;14.33
68701;DHT22;55682;51.114;5.882;2023-06-26T10:31:52;42.22;14.67
68701;DHT22;55682;51.114;5.882;2023-06-26T10:34:20;40.47;16.61
68701;DHT22;55682;51.114;5.882;2023-06-26T10:36:46;39.33;18.45
68701;DHT22;55682;51.114;5.882;2023-06-26T10:39:13;39.87;17.74
68701;DHT22;55682;51.114;5.882;2023-06-26T10:41:40;40.83;16.19
68701;DHT22;55682;51.114;5.882;2023-06-26T10:44:16;41.58;14.70
68701;DHT22;55682;51.114;5.882;2023-06-26T10:46:54;42.13;13.86
68701;DHT22;55682;51.114;5.882;2023-06-26T10:49:21;42.46;13.15
68701;DHT22;55682;51.114;5.882;2023-06-26T10:51:51;42.47;13.29
68701;DHT22;55682;51.114;5.882;2023-06-26T10:54:19;42.57;13.00
68701;DHT22;55682;51.114;5.882;2023-06-26T10:56:55;42.72;12.49
68701;DHT22;55682;51.114;5.882;2023-06-26T10:59:26;41.81;13.13
68701;DHT22;55682;51.114;5.882;2023-06-26T11:02:00;40.52;14.26
68701;DHT22;55682;51.114;5.882;2023-06-26T11:07:24;39.22;16.54
68701;DHT22;55682;51.114;5.882;2023-06-26T11:12:41;39.07;16.88
68701;DHT22;55682;51.114;5.882;2023-06-26T11:15:12;39.92;15.39
68701;DHT22;55682;51.114;5.882;2023-06-26T11:17:39;40.23;15.05
68701;DHT22;55682;51.114;5.882;2023-06-26T11:20:06;40.69;14.31
68701;DHT22;55682;51.114;5.882;2023-06-26T11:22:38;40.83;13.47
68701;DHT22;55682;51.114;5.882;2023-06-26T11:25:05;40.27;13.98
68701;DHT22;55682;51.114;5.882;2023-06-26T11:27:42;39.43;15.23
68701;DHT22;55682;51.114;5.882;2023-06-26T11:30:22;38.70;16.14
68701;DHT22;55682;51.114;5.882;2023-06-26T11:32:48;38.65;16.16
68701;DHT22;55682;51.114;5.882;2023-06-26T11:35:25;38.29;16.07
68701;DHT22;55682;51.114;5.882;2023-06-26T11:37:56;38.23;16.03
68701;DHT22;55682;51.114;5.882;2023-06-26T11:40:23;38.75;15.45
68701;DHT22;55682;51.114;5.882;2023-06-26T11:42:55;38.34;15.93
68701;DHT22;55682;51.114;5.882;2023-06-26T11:45:21;38.29;15.90
68701;DHT22;55682;51.114;5.882;2023-06-26T11:47:46;38.22;15.72
68701;DHT22;55682;51.114;5.882;2023-06-26T11:50:16;37.72;16.18
68701;DHT22;55682;51.114;5.882;2023-06-26T11:52:43;37.79;16.59
68701;DHT22;55682;51.114;5.882;2023-06-26T11:55:09;38.38;15.93
68701;DHT22;55682;51.114;5.882;2023-06-26T11:57:36;39.03;15.28
68701;DHT22;55682;51.114;5.882;2023-06-26T12:00:15;39.14;15.00
68701;DHT22;55682;51.114;5.882;2023-06-26T12:02:45;38.43;15.65
68701;DHT22;55682;51.114;5.882;2023-06-26T12:05:13;37.76;16.27
68701;DHT22;55682;51.114;5.882;2023-06-26T12:07:41;37.23;16.87
68701;DHT22;55682;51.114;5.882;2023-06-26T12:10:12;36.75;17.25
68701;DHT22;55682;51.114;5.882;2023-06-26T12:12:40;36.23;17.61
68701;DHT22;55682;51.114;5.882;2023-06-26T12:15:07;35.55;18.15
68701;DHT22;55682;51.114;5.882;2023-06-26T12:17:37;35.18;19.13
68701;DHT22;55682;51.114;5.882;2023-06-26T12:20:05;35.12;19.04
68701;DHT22;55682;51.114;5.882;2023-06-26T12:22:35;35.03;19.21
68701;DHT22;55682;51.114;5.882;2023-06-26T12:25:00;35.08;19.50
68701;DHT22;55682;51.114;5.882;2023-06-26T12:27:27;35.01;19.51
68701;DHT22;55682;51.114;5.882;2023-06-26T12:29:54;34.93;19.94
68701;DHT22;55682;51.114;5.882;2023-06-26T12:32:23;34.79;20.18
68701;DHT22;55682;51.114;5.882;2023-06-26T12:34:50;34.55;20.23
68701;DHT22;55682;51.114;5.882;2023-06-26T12:37:16;34.31;20.54
68701;DHT22;55682;51.114;5.882;2023-06-26T12:39:53;34.12;20.95
68701;DHT22;55682;51.114;5.882;2023-06-26T12:44:47;33.82;21.46
68701;DHT22;55682;51.114;5.882;2023-06-26T12:47:15;33.73;21.87
68701;DHT22;55682;51.114;5.882;2023-06-26T12:49:42;33.79;21.95
68701;DHT22;55682;51.114;5.882;2023-06-26T12:52:10;33.73;21.83
68701;DHT22;55682;51.114;5.882;2023-06-26T12:54:39;33.72;21.75
68701;DHT22;55682;51.114;5.882;2023-06-26T12:57:05;33.77;21.73
68701;DHT22;55682;51.114;5.882;2023-06-26T12:59:32;33.89;21.47
68701;DHT22;55682;51.114;5.882;2023-06-26T13:01:59;34.08;21.32
68701;DHT22;55682;51.114;5.882;2023-06-26T13:04:25;34.26;21.05
68701;DHT22;55682;51.114;5.882;2023-06-26T13:06:51;34.30;20.25
68701;DHT22;55682;51.114;5.882;2023-06-26T13:09:17;34.36;19.82
68701;DHT22;55682;51.114;5.882;2023-06-26T13:11:43;34.32;19.96
68701;DHT22;55682;51.114;5.882;2023-06-26T13:14:10;34.29;19.83
68701;DHT22;55682;51.114;5.882;2023-06-26T13:16:36;34.38;19.78
68701;DHT22;55682;51.114;5.882;2023-06-26T13:19:02;34.49;19.60
68701;DHT22;55682;51.114;5.882;2023-06-26T13:21:28;34.46;19.28
68701;DHT22;55682;51.114;5.882;2023-06-26T13:23:55;34.37;19.71
68701;DHT22;55682;51.114;5.882;2023-06-26T13:26:21;34.19;19.64
68701;DHT22;55682;51.114;5.882;2023-06-26T13:28:48;34.02;19.47
68701;DHT22;55682;51.114;5.882;2023-06-26T13:31:14;33.82;19.21
68701;DHT22;55682;51.114;5.882;2023-06-26T13:33:40;33.62;20.09
68701;DHT22;55682;51.114;5.882;2023-06-26T13:36:06;33.48;20.63
68701;DHT22;55682;51.114;5.882;2023-06-26T13:38:35;33.46;20.85
68701;DHT22;55682;51.114;5.882;2023-06-26T13:41:01;33.44;20.60
68701;DHT22;55682;51.114;5.882;2023-06-26T13:43:28;33.44;20.87
68701;DHT22;55682;51.114;5.882;2023-06-26T13:45:54;33.63;20.68
68701;DHT22;55682;51.114;5.882;2023-06-26T13:48:19;33.68;20.12
68701;DHT22;55682;51.114;5.882;2023-06-26T13:50:46;33.64;20.15
68701;DHT22;55682;51.114;5.882;2023-06-26T13:53:12;33.53;19.73
68701;DHT22;55682;51.114;5.882;2023-06-26T13:55:39;33.35;19.65
68701;DHT22;55682;51.114;5.882;2023-06-26T13:58:05;33.32;19.88
68701;DHT22;55682;51.114;5.882;2023-06-26T14:00:35;33.47;20.03
68701;DHT22;55682;51.114;5.882;2023-06-26T14:03:05;33.51;19.41
68701;DHT22;55682;51.114;5.882;2023-06-26T14:05:36;33.45;19.10
68701;DHT22;55682;51.114;5.882;2023-06-26T14:08:03;33.33;18.99
68701;DHT22;55682;51.114;5.882;2023-06-26T14:10:30;33.33;18.96
68701;DHT22;55682;51.114;5.882;2023-06-26T14:12:56;33.35;18.92
68701;DHT22;55682;51.114;5.882;2023-06-26T14:15:22;33.38;18.96
68701;DHT22;55682;51.114;5.882;2023-06-26T14:17:47;33.44;18.93
68701;DHT22;55682;51.114;5.882;2023-06-26T14:20:16;33.40;19.17
68701;DHT22;55682;51.114;5.882;2023-06-26T14:22:42;33.40;19.05
68701;DHT22;55682;51.114;5.882;2023-06-26T14:25:10;33.37;19.22
68701;DHT22;55682;51.114;5.882;2023-06-26T14:27:36;33.42;19.76
68701;DHT22;55682;51.114;5.882;2023-06-26T14:30:03;33.55;19.67
68701;DHT22;55682;51.114;5.882;2023-06-26T14:32:29;33.43;19.86
68701;DHT22;55682;51.114;5.882;2023-06-26T14:34:56;33.38;20.02
68701;DHT22;55682;51.114;5.882;2023-06-26T14:37:22;33.43;19.97
68701;DHT22;55682;51.114;5.882;2023-06-26T14:39:49;33.42;19.68
68701;DHT22;55682;51.114;5.882;2023-06-26T14:42:14;33.43;19.50
68701;DHT22;55682;51.114;5.882;2023-06-26T14:44:40;33.31;19.61
68701;DHT22;55682;51.114;5.882;2023-06-26T14:47:06;33.09;19.78
68701;DHT22;55682;51.114;5.882;2023-06-26T14:49:31;32.92;20.18
68701;DHT22;55682;51.114;5.882;2023-06-26T14:51:57;32.76;19.96
68701;DHT22;55682;51.114;5.882;2023-06-26T14:54:23;32.60;20.05
68701;DHT22;55682;51.114;5.882;2023-06-26T14:56:49;32.48;19.89
68701;DHT22;55682;51.114;5.882;2023-06-26T14:59:14;32.44;20.32
68701;DHT22;55682;51.114;5.882;2023-06-26T15:01:40;32.41;20.24
68701;DHT22;55682;51.114;5.882;2023-06-26T15:04:06;32.25;20.60
68701;DHT22;55682;51.114;5.882;2023-06-26T15:06:32;32.20;20.76
68701;DHT22;55682;51.114;5.882;2023-06-26T15:08:58;32.19;20.52
68701;DHT22;55682;51.114;5.882;2023-06-26T15:11:24;32.09;20.72
68701;DHT22;55682;51.114;5.882;2023-06-26T15:13:49;32.08;20.78
68701;DHT22;55682;51.114;5.882;2023-06-26T15:16:15;32.08;20.21
68701;DHT22;55682;51.114;5.882;2023-06-26T15:18:41;32.14;20.04
68701;DHT22;55682;51.114;5.882;2023-06-26T15:21:07;32.16;19.78
68701;DHT22;55682;51.114;5.882;2023-06-26T15:23:34;32.05;20.08
68701;DHT22;55682;51.114;5.882;2023-06-26T15:26:00;32.04;20.96
68701;DHT22;55682;51.114;5.882;2023-06-26T15:28:25;32.09;21.61
68701;DHT22;55682;51.114;5.882;2023-06-26T15:30:51;32.15;21.66
68701;DHT22;55682;51.114;5.882;2023-06-26T15:33:17;32.23;21.25
68701;DHT22;55682;51.114;5.882;2023-06-26T15:35:42;32.32;21.60
68701;DHT22;55682;51.114;5.882;2023-06-26T15:38:08;32.42;21.28
68701;DHT22;55682;51.114;5.882;2023-06-26T15:40:34;32.28;20.92
68701;DHT22;55682;51.114;5.882;2023-06-26T15:42:59;32.01;20.87
68701;DHT22;55682;51.114;5.882;2023-06-26T15:45:25;31.74;21.23